sensor_id;sensor_type;location;lat;lon;timestamp;P1;durP1;ratioP1;P2;durP2;ratioP2
9924;SDS011;5001;51.674;7.868;2023-08-08T00:00:00;6.13;;;2.43;;
9924;SDS011;5001;51.674;7.868;2023-08-08T00:02:30;3.13;;;1.87;;
9924;SDS011;5001;51.674;7.868;2023-08-08T00:04:58;2.80;;;2.00;;
9924;SDS011;5001;51.674;7.868;2023-08-08T00:07:26;2.17;;;1.70;;
9924;SDS011;5001;51.674;7.868;2023-08-08T00:09:56;2.67;;;1.90;;
9924;SDS011;5001;51.674;7.868;2023-08-08T00:12:23;3.37;;;1.83;;
9924;SDS011;5001;51.674;7.868;2023-08-08T00:14:50;2.97;;;2.23;;
9924;SDS011;5001;51.674;7.868;2023-08-08T00:17:17;4.53;;;2.40;;
9924;SDS011;5001;51.674;7.868;2023-08-08T00:19:44;2.50;;;1.73;;
9924;SDS011;5001;51.674;7.868;2023-08-08T00:22:12;3.13;;;2.00;;
9924;SDS011;5001;51.674;7.868;2023-08-08T00:24:39;3.53;;;2.17;;
9924;SDS011;5001;51.674;7.868;2023-08-08T00:27:05;5.97;;;2.67;;
9924;SDS011;5001;51.674;7.868;2023-08-08T00:29:32;4.13;;;2.50;;
9924;SDS011;5001;51.674;7.868;2023-08-08T00:31:59;3.97;;;2.43;;
9924;SDS011;5001;51.674;7.868;2023-08-08T00:34:27;3.60;;;2.30;;
9924;SDS011;5001;51.674;7.868;2023-08-08T00:36:54;2.17;;;1.97;;
9924;SDS011;5001;51.674;7.868;2023-08-08T00:39:21;2.87;;;2.00;;
9924;SDS011;5001;51.674;7.868;2023-08-08T00:41:48;6.30;;;2.63;;
9924;SDS011;5001;51.674;7.868;2023-08-08T00:44:15;4.53;;;2.33;;
9924;SDS011;5001;51.674;7.868;2023-08-08T00:46:42;5.63;;;2.23;;
9924;SDS011;5001;51.674;7.868;2023-08-08T00:49:10;3.27;;;1.70;;
9924;SDS011;5001;51.674;7.868;2023-08-08T00:51:37;4.03;;;2.03;;
9924;SDS011;5001;51.674;7.868;2023-08-08T00:54:04;2.43;;;1.93;;
9924;SDS011;5001;51.674;7.868;2023-08-08T00:56:33;2.00;;;1.70;;
9924;SDS011;5001;51.674;7.868;2023-08-08T00:59:01;4.43;;;2.30;;
9924;SDS011;5001;51.674;7.868;2023-08-08T01:01:29;3.60;;;2.00;;
9924;SDS011;5001;51.674;7.868;2023-08-08T01:04:30;1.70;;;1.60;;
9924;SDS011;5001;51.674;7.868;2023-08-08T01:09:30;3.57;;;1.90;;
9924;SDS011;5001;51.674;7.868;2023-08-08T01:12:02;3.77;;;2.10;;
9924;SDS011;5001;51.674;7.868;2023-08-08T01:14:30;2.30;;;2.10;;
9924;SDS011;5001;51.674;7.868;2023-08-08T01:17:01;3.43;;;2.37;;
9924;SDS011;5001;51.674;7.868;2023-08-08T01:19:29;3.10;;;2.30;;
9924;SDS011;5001;51.674;7.868;2023-08-08T01:22:01;6.97;;;2.50;;
9924;SDS011;5001;51.674;7.868;2023-08-08T01:24:31;3.03;;;2.03;;
9924;SDS011;5001;51.674;7.868;2023-08-08T01:27:00;3.17;;;2.27;;
9924;SDS011;5001;51.674;7.868;2023-08-08T01:29:27;3.53;;;2.43;;
9924;SDS011;5001;51.674;7.868;2023-08-08T01:31:55;6.83;;;3.20;;
9924;SDS011;5001;51.674;7.868;2023-08-08T01:34:23;3.23;;;2.10;;
9924;SDS011;5001;51.674;7.868;2023-08-08T01:36:57;2.80;;;2.13;;
9924;SDS011;5001;51.674;7.868;2023-08-08T01:39:41;4.37;;;2.93;;
9924;SDS011;5001;51.674;7.868;2023-08-08T01:42:10;5.93;;;2.70;;
9924;SDS011;5001;51.674;7.868;2023-08-08T01:44:38;4.00;;;2.87;;
9924;SDS011;5001;51.674;7.868;2023-08-08T01:47:10;4.67;;;2.93;;
9924;SDS011;5001;51.674;7.868;2023-08-08T01:49:37;4.30;;;2.20;;
9924;SDS011;5001;51.674;7.868;2023-08-08T01:52:04;3.80;;;2.17;;
9924;SDS011;5001;51.674;7.868;2023-08-08T01:54:31;3.17;;;2.50;;
9924;SDS011;5001;51.674;7.868;2023-08-08T01:56:59;5.20;;;3.30;;
9924;SDS011;5001;51.674;7.868;2023-08-08T01:59:26;4.90;;;3.30;;
9924;SDS011;5001;51.674;7.868;2023-08-08T18:02:02;7.57;;;3.95;;
9924;SDS011;5001;51.674;7.868;2023-08-08T18:04:31;5.40;;;4.22;;
9924;SDS011;5001;51.674;7.868;2023-08-08T18:06:58;2.40;;;2.17;;
9924;SDS011;5001;51.674;7.868;2023-08-08T18:09:25;5.97;;;3.08;;
9924;SDS011;5001;51.674;7.868;2023-08-08T18:11:56;3.75;;;2.13;;
9924;SDS011;5001;51.674;7.868;2023-08-08T18:14:25;4.65;;;3.25;;
9924;SDS011;5001;51.674;7.868;2023-08-08T18:16:52;3.17;;;1.85;;
9924;SDS011;5001;51.674;7.868;2023-08-08T18:19:19;2.22;;;1.70;;
9924;SDS011;5001;51.674;7.868;2023-08-08T18:21:48;3.70;;;2.00;;
9924;SDS011;5001;51.674;7.868;2023-08-08T18:24:15;5.93;;;3.42;;
9924;SDS011;5001;51.674;7.868;2023-08-08T18:26:43;3.60;;;2.92;;
9924;SDS011;5001;51.674;7.868;2023-08-08T18:29:10;3.80;;;3.40;;
9924;SDS011;5001;51.674;7.868;2023-08-08T18:31:37;3.95;;;3.15;;
9924;SDS011;5001;51.674;7.868;2023-08-08T18:34:04;6.57;;;2.60;;
9924;SDS011;5001;51.674;7.868;2023-08-08T18:36:31;4.25;;;2.42;;
9924;SDS011;5001;51.674;7.868;2023-08-08T18:38:59;5.75;;;2.85;;
9924;SDS011;5001;51.674;7.868;2023-08-08T18:41:27;2.90;;;2.50;;
9924;SDS011;5001;51.674;7.868;2023-08-08T18:43:54;6.25;;;2.75;;
9924;SDS011;5001;51.674;7.868;2023-08-08T18:46:21;2.78;;;2.47;;
9924;SDS011;5001;51.674;7.868;2023-08-08T18:48:49;2.72;;;2.38;;
9924;SDS011;5001;51.674;7.868;2023-08-08T18:51:16;2.92;;;2.63;;
9924;SDS011;5001;51.674;7.868;2023-08-08T18:53:46;1.65;;;1.55;;
9924;SDS011;5001;51.674;7.868;2023-08-08T18:56:13;3.38;;;2.15;;
9924;SDS011;5001;51.674;7.868;2023-08-08T18:58:40;2.63;;;2.40;;
9924;SDS011;5001;51.674;7.868;2023-08-08T19:01:07;2.40;;;2.17;;
9924;SDS011;5001;51.674;7.868;2023-08-08T19:03:35;4.03;;;2.20;;
9924;SDS011;5001;51.674;7.868;2023-08-08T19:06:03;3.20;;;2.45;;
9924;SDS011;5001;51.674;7.868;2023-08-08T19:08:30;4.97;;;3.17;;
9924;SDS011;5001;51.674;7.868;2023-08-08T19:10:57;7.20;;;4.28;;
9924;SDS011;5001;51.674;7.868;2023-08-08T19:13:24;8.43;;;3.55;;
9924;SDS011;5001;51.674;7.868;2023-08-08T19:15:51;3.95;;;2.30;;
9924;SDS011;5001;51.674;7.868;2023-08-08T19:18:18;4.20;;;2.63;;
9924;SDS011;5001;51.674;7.868;2023-08-08T19:20:45;3.15;;;2.13;;
9924;SDS011;5001;51.674;7.868;2023-08-08T19:23:14;4.20;;;2.78;;
9924;SDS011;5001;51.674;7.868;2023-08-08T19:25:42;4.72;;;2.78;;
9924;SDS011;5001;51.674;7.868;2023-08-08T19:28:09;4.30;;;2.15;;
9924;SDS011;5001;51.674;7.868;2023-08-08T19:30:37;5.45;;;3.05;;
9924;SDS011;5001;51.674;7.868;2023-08-08T19:33:04;5.53;;;2.97;;
9924;SDS011;5001;51.674;7.868;2023-08-08T19:35:31;2.28;;;1.80;;
9924;SDS011;5001;51.674;7.868;2023-08-08T19:38:01;5.55;;;2.10;;
9924;SDS011;5001;51.674;7.868;2023-08-08T19:40:28;3.20;;;2.40;;
9924;SDS011;5001;51.674;7.868;2023-08-08T19:42:57;4.03;;;1.83;;
9924;SDS011;5001;51.674;7.868;2023-08-08T19:45:24;3.47;;;2.20;;
9924;SDS011;5001;51.674;7.868;2023-08-08T19:47:51;2.17;;;1.88;;
9924;SDS011;5001;51.674;7.868;2023-08-08T19:50:18;4.40;;;3.22;;
9924;SDS011;5001;51.674;7.868;2023-08-08T19:52:45;3.90;;;2.38;;
9924;SDS011;5001;51.674;7.868;2023-08-08T19:55:13;1.90;;;1.63;;
9924;SDS011;5001;51.674;7.868;2023-08-08T19:57:40;3.92;;;2.28;;
9924;SDS011;5001;51.674;7.868;2023-08-08T20:00:07;2.95;;;1.80;;
9924;SDS011;5001;51.674;7.868;2023-08-08T20:02:37;2.05;;;1.85;;
9924;SDS011;5001;51.674;7.868;2023-08-08T20:05:05;4.28;;;2.40;;
9924;SDS011;5001;51.674;7.868;2023-08-08T20:07:33;3.83;;;2.00;;
9924;SDS011;5001;51.674;7.868;2023-08-08T20:10:00;2.85;;;2.30;;
9924;SDS011;5001;51.674;7.868;2023-08-08T20:12:28;4.00;;;2.20;;
9924;SDS011;5001;51.674;7.868;2023-08-08T20:14:54;4.30;;;2.10;;
9924;SDS011;5001;51.674;7.868;2023-08-08T20:17:21;2.80;;;1.98;;
9924;SDS011;5001;51.674;7.868;2023-08-08T20:19:48;3.65;;;2.10;;
9924;SDS011;5001;51.674;7.868;2023-08-08T20:22:15;2.65;;;2.22;;
9924;SDS011;5001;51.674;7.868;2023-08-08T20:24:42;5.88;;;2.53;;
9924;SDS011;5001;51.674;7.868;2023-08-08T20:27:09;2.75;;;2.15;;
9924;SDS011;5001;51.674;7.868;2023-08-08T20:29:36;5.15;;;2.42;;
9924;SDS011;5001;51.674;7.868;2023-08-08T20:32:03;3.47;;;2.50;;
9924;SDS011;5001;51.674;7.868;2023-08-08T20:34:30;3.50;;;2.00;;
9924;SDS011;5001;51.674;7.868;2023-08-08T20:36:57;2.53;;;2.33;;
9924;SDS011;5001;51.674;7.868;2023-08-08T20:39:25;3.63;;;2.85;;
9924;SDS011;5001;51.674;7.868;2023-08-08T20:41:52;2.65;;;2.28;;
9924;SDS011;5001;51.674;7.868;2023-08-08T20:44:20;2.63;;;2.42;;
9924;SDS011;5001;51.674;7.868;2023-08-08T20:46:47;6.63;;;4.80;;
9924;SDS011;5001;51.674;7.868;2023-08-08T20:49:14;7.47;;;3.90;;
9924;SDS011;5001;51.674;7.868;2023-08-08T20:51:41;5.35;;;3.45;;
9924;SDS011;5001;51.674;7.868;2023-08-08T20:54:09;3.83;;;3.10;;
9924;SDS011;5001;51.674;7.868;2023-08-08T20:56:36;4.57;;;3.47;;
9924;SDS011;5001;51.674;7.868;2023-08-08T20:59:05;4.53;;;3.88;;
9924;SDS011;5001;51.674;7.868;2023-08-08T21:01:32;6.60;;;3.85;;
9924;SDS011;5001;51.674;7.868;2023-08-08T21:03:59;5.05;;;3.28;;
9924;SDS011;5001;51.674;7.868;2023-08-08T21:06:26;4.10;;;3.13;;
9924;SDS011;5001;51.674;7.868;2023-08-08T21:08:53;5.05;;;4.18;;
9924;SDS011;5001;51.674;7.868;2023-08-08T21:11:20;5.65;;;3.67;;
9924;SDS011;5001;51.674;7.868;2023-08-08T21:13:47;5.68;;;4.43;;
9924;SDS011;5001;51.674;7.868;2023-08-08T21:16:14;3.35;;;2.97;;
9924;SDS011;5001;51.674;7.868;2023-08-08T21:18:41;3.28;;;2.80;;
9924;SDS011;5001;51.674;7.868;2023-08-08T21:21:08;6.00;;;3.55;;
9924;SDS011;5001;51.674;7.868;2023-08-08T21:23:35;5.88;;;2.60;;
9924;SDS011;5001;51.674;7.868;2023-08-08T21:26:02;3.53;;;2.97;;
9924;SDS011;5001;51.674;7.868;2023-08-08T21:28:29;5.63;;;4.10;;
9924;SDS011;5001;51.674;7.868;2023-08-08T21:30:56;9.52;;;4.30;;
9924;SDS011;5001;51.674;7.868;2023-08-08T21:33:23;6.60;;;3.97;;
9924;SDS011;5001;51.674;7.868;2023-08-08T21:35:50;11.70;;;5.72;;
9924;SDS011;5001;51.674;7.868;2023-08-08T21:38:17;9.82;;;4.40;;
9924;SDS011;5001;51.674;7.868;2023-08-08T21:40:44;8.13;;;4.80;;
9924;SDS011;5001;51.674;7.868;2023-08-08T21:43:11;9.07;;;4.63;;
9924;SDS011;5001;51.674;7.868;2023-08-08T21:45:38;6.90;;;3.08;;
9924;SDS011;5001;51.674;7.868;2023-08-08T21:48:05;7.78;;;4.40;;
9924;SDS011;5001;51.674;7.868;2023-08-08T21:50:32;5.40;;;3.63;;
9924;SDS011;5001;51.674;7.868;2023-08-08T21:52:59;8.63;;;4.22;;
9924;SDS011;5001;51.674;7.868;2023-08-08T21:55:26;4.50;;;3.22;;
9924;SDS011;5001;51.674;7.868;2023-08-08T21:57:53;5.28;;;4.38;;
9924;SDS011;5001;51.674;7.868;2023-08-08T22:00:21;5.55;;;4.30;;
9924;SDS011;5001;51.674;7.868;2023-08-08T22:02:48;6.50;;;4.70;;
9924;SDS011;5001;51.674;7.868;2023-08-08T22:05:15;5.47;;;3.95;;
9924;SDS011;5001;51.674;7.868;2023-08-08T22:07:42;6.13;;;5.03;;
9924;SDS011;5001;51.674;7.868;2023-08-08T22:10:09;7.63;;;4.78;;
9924;SDS011;5001;51.674;7.868;2023-08-08T22:12:37;7.78;;;6.00;;
9924;SDS011;5001;51.674;7.868;2023-08-08T22:15:04;10.45;;;5.70;;
9924;SDS011;5001;51.674;7.868;2023-08-08T22:17:32;10.27;;;7.13;;
9924;SDS011;5001;51.674;7.868;2023-08-08T22:19:58;10.18;;;6.80;;
9924;SDS011;5001;51.674;7.868;2023-08-08T22:22:26;7.18;;;4.53;;
9924;SDS011;5001;51.674;7.868;2023-08-08T22:24:53;13.40;;;6.50;;
9924;SDS011;5001;51.674;7.868;2023-08-08T22:27:20;8.23;;;5.07;;
9924;SDS011;5001;51.674;7.868;2023-08-08T22:29:46;7.10;;;4.95;;
9924;SDS011;5001;51.674;7.868;2023-08-08T22:32:13;9.03;;;8.10;;
9924;SDS011;5001;51.674;7.868;2023-08-08T22:34:40;10.80;;;8.23;;
9924;SDS011;5001;51.674;7.868;2023-08-08T22:37:07;8.13;;;6.03;;
9924;SDS011;5001;51.674;7.868;2023-08-08T22:39:35;8.20;;;5.50;;
9924;SDS011;5001;51.674;7.868;2023-08-08T22:42:01;8.95;;;5.82;;
9924;SDS011;5001;51.674;7.868;2023-08-08T22:44:28;10.18;;;7.32;;
9924;SDS011;5001;51.674;7.868;2023-08-08T22:46:55;9.60;;;6.20;;
9924;SDS011;5001;51.674;7.868;2023-08-08T22:49:22;8.43;;;6.47;;
9924;SDS011;5001;51.674;7.868;2023-08-08T22:51:49;9.48;;;6.30;;
9924;SDS011;5001;51.674;7.868;2023-08-08T22:54:16;6.72;;;5.28;;
9924;SDS011;5001;51.674;7.868;2023-08-08T22:56:45;8.70;;;6.03;;
9924;SDS011;5001;51.674;7.868;2023-08-08T22:59:12;9.32;;;6.75;;
9924;SDS011;5001;51.674;7.868;2023-08-08T23:01:39;9.45;;;7.07;;
9924;SDS011;5001;51.674;7.868;2023-08-08T23:04:06;12.35;;;7.05;;
9924;SDS011;5001;51.674;7.868;2023-08-08T23:06:33;7.47;;;5.45;;
9924;SDS011;5001;51.674;7.868;2023-08-08T23:09:00;6.78;;;5.45;;
9924;SDS011;5001;51.674;7.868;2023-08-08T23:11:27;7.55;;;5.18;;
9924;SDS011;5001;51.674;7.868;2023-08-08T23:13:54;4.97;;;4.03;;
9924;SDS011;5001;51.674;7.868;2023-08-08T23:16:21;4.68;;;4.03;;
9924;SDS011;5001;51.674;7.868;2023-08-08T23:18:48;5.97;;;3.60;;
9924;SDS011;5001;51.674;7.868;2023-08-08T23:21:15;3.20;;;2.90;;
9924;SDS011;5001;51.674;7.868;2023-08-08T23:23:42;3.83;;;3.28;;
9924;SDS011;5001;51.674;7.868;2023-08-08T23:26:09;5.85;;;4.20;;
9924;SDS011;5001;51.674;7.868;2023-08-08T23:28:38;4.57;;;3.45;;
9924;SDS011;5001;51.674;7.868;2023-08-08T23:31:04;3.20;;;2.75;;
9924;SDS011;5001;51.674;7.868;2023-08-08T23:33:31;3.65;;;2.72;;
9924;SDS011;5001;51.674;7.868;2023-08-08T23:35:59;3.85;;;2.53;;
9924;SDS011;5001;51.674;7.868;2023-08-08T23:38:26;3.72;;;2.97;;
9924;SDS011;5001;51.674;7.868;2023-08-08T23:40:52;3.03;;;2.20;;
9924;SDS011;5001;51.674;7.868;2023-08-08T23:43:19;5.55;;;3.20;;
9924;SDS011;5001;51.674;7.868;2023-08-08T23:45:46;5.50;;;2.70;;
9924;SDS011;5001;51.674;7.868;2023-08-08T23:48:13;2.67;;;2.33;;
9924;SDS011;5001;51.674;7.868;2023-08-08T23:50:40;2.63;;;2.05;;
9924;SDS011;5001;51.674;7.868;2023-08-08T23:53:07;2.17;;;1.98;;
9924;SDS011;5001;51.674;7.868;2023-08-08T23:55:34;2.58;;;2.10;;
9924;SDS011;5001;51.674;7.868;2023-08-08T23:58:01;3.25;;;2.60;;
